< < Back
Terminal Aerodrome Forecast


Current Version              Previous Versions:   1  2  3  4  5  6  7  8  9  

Terminal Aerodrome Forecast

695
FTUS42 KJAX 282254 AAD
TAFGNV
TAF AMD
KGNV 282254Z 2823/2918 12005KT P6SM VCTS BKN040CB BKN070
      TEMPO 2823/2824 3SM TSRA BR BKN040CB BKN070 OVC100
     FM290000 24006KT P6SM SCT040 BKN070
     FM290200 VRB03KT P6SM BKN250
     FM291500 24006KT P6SM FEW030 BKN250=



Latest METAR

512
SAUS70 KWBC 291800 RRL
MTRGNV
METAR KGNV 291753Z 21005KT 10SM SCT045 32/22 A2997 RMK AO2 SLP144
T03220217 10328 20256 58011


USA.gov is the U.S. government's official web portal to all federal, state and local government web resources and services.